createdAt,value
2017-12-30T00:00:40.204Z,12.00
2017-12-30T00:01:40.185Z,11.90
2017-12-30T00:02:40.156Z,11.20
2017-12-30T00:03:40.166Z,11.50
2017-12-30T00:04:40.139Z,11.60
2017-12-30T00:05:40.102Z,11.10
2017-12-30T00:06:40.084Z,12.20
2017-12-30T00:07:40.079Z,11.10
2017-12-30T00:08:40.036Z,11.60
2017-12-30T00:09:40.009Z,11.00
2017-12-30T00:10:40.008Z,10.60
2017-12-30T00:11:39.971Z,10.40
2017-12-30T00:12:39.955Z,10.40
2017-12-30T00:13:39.924Z,10.70
2017-12-30T00:14:39.948Z,10.30
2017-12-30T00:15:39.889Z,9.70
2017-12-30T00:16:39.869Z,10.60
2017-12-30T00:17:39.844Z,10.30
2017-12-30T00:18:39.822Z,10.10
2017-12-30T00:19:39.807Z,10.10
2017-12-30T00:20:39.787Z,10.40
2017-12-30T00:21:39.759Z,10.30
2017-12-30T00:22:39.741Z,10.60
2017-12-30T00:23:39.735Z,10.70
2017-12-30T00:24:39.701Z,9.70
2017-12-30T00:25:39.686Z,10.20
2017-12-30T00:26:39.661Z,9.30
2017-12-30T00:27:39.637Z,9.70
2017-12-30T00:28:39.615Z,9.60
2017-12-30T00:29:39.589Z,10.00
2017-12-30T00:30:39.574Z,9.50
2017-12-30T00:31:39.619Z,9.60
2017-12-30T00:32:39.533Z,10.20
2017-12-30T00:33:39.509Z,9.50
2017-12-30T00:34:39.492Z,9.00
2017-12-30T00:35:39.467Z,9.60
2017-12-30T00:36:39.454Z,9.30
2017-12-30T00:37:39.429Z,9.10
2017-12-30T00:38:39.414Z,9.10
2017-12-30T00:39:39.389Z,9.30
2017-12-30T00:40:39.374Z,9.20
2017-12-30T00:41:39.347Z,9.50
2017-12-30T00:42:39.340Z,10.10
2017-12-30T00:43:39.303Z,9.30
2017-12-30T00:44:39.281Z,9.30
2017-12-30T00:45:39.266Z,9.00
2017-12-30T00:46:39.250Z,10.40
2017-12-30T00:47:39.221Z,9.80
2017-12-30T00:48:39.211Z,10.20
2017-12-30T00:49:39.184Z,9.40
2017-12-30T00:50:39.206Z,9.60
2017-12-30T00:51:39.146Z,8.60
2017-12-30T00:52:39.118Z,9.20
2017-12-30T00:53:39.096Z,9.40
2017-12-30T00:54:39.078Z,9.40
2017-12-30T00:55:39.059Z,9.40
2017-12-30T00:56:39.033Z,9.70
2017-12-30T00:57:39.077Z,9.80
2017-12-30T00:58:38.991Z,9.30
2017-12-30T00:59:38.992Z,9.00
2017-12-30T01:00:38.951Z,9.70
2017-12-30T01:01:38.924Z,9.50
2017-12-30T01:02:38.915Z,9.10
2017-12-30T01:03:38.887Z,8.90
2017-12-30T01:04:38.871Z,9.50
2017-12-30T01:05:38.843Z,9.30
2017-12-30T01:06:38.840Z,8.90
2017-12-30T01:07:38.815Z,9.50
2017-12-30T01:08:38.790Z,9.50
2017-12-30T01:09:38.767Z,8.90
2017-12-30T01:10:38.743Z,8.20
2017-12-30T01:11:38.717Z,8.70
2017-12-30T01:12:38.892Z,8.20
2017-12-30T01:13:38.792Z,7.60
2017-12-30T01:14:38.664Z,8.60
2017-12-30T01:15:38.641Z,7.80
2017-12-30T01:16:38.621Z,8.30
2017-12-30T01:17:38.606Z,7.70
2017-12-30T01:18:38.618Z,8.00
2017-12-30T01:19:38.561Z,7.30
2017-12-30T01:20:38.542Z,7.50
2017-12-30T01:21:38.526Z,7.90
2017-12-30T01:22:38.519Z,6.60
2017-12-30T01:23:38.499Z,7.30
2017-12-30T01:24:38.460Z,7.30
2017-12-30T01:25:38.458Z,6.30
2017-12-30T01:26:38.403Z,6.80
2017-12-30T01:27:38.386Z,6.80
2017-12-30T01:28:38.374Z,6.70
2017-12-30T01:29:38.349Z,6.90
2017-12-30T01:30:38.339Z,6.60
2017-12-30T01:31:38.306Z,6.70
2017-12-30T01:32:38.296Z,6.70
2017-12-30T01:33:38.266Z,6.60
2017-12-30T01:34:38.242Z,7.40
2017-12-30T01:35:38.226Z,6.00
2017-12-30T01:36:38.203Z,6.80
2017-12-30T01:37:38.184Z,5.80
2017-12-30T01:38:38.165Z,5.40
2017-12-30T01:39:38.162Z,5.90
2017-12-30T01:40:38.120Z,5.60
2017-12-30T01:41:38.101Z,6.50
2017-12-30T01:42:38.075Z,6.00
2017-12-30T01:43:38.067Z,5.40
2017-12-30T01:44:38.041Z,5.30
2017-12-30T01:45:38.018Z,5.00
2017-12-30T01:46:37.996Z,5.30
2017-12-30T01:47:37.982Z,5.40
2017-12-30T01:48:37.947Z,5.40
2017-12-30T01:49:37.933Z,4.60
2017-12-30T01:50:37.907Z,5.80
2017-12-30T01:51:37.893Z,5.00
2017-12-30T01:52:37.869Z,4.90
2017-12-30T01:53:37.851Z,5.10
2017-12-30T01:54:37.832Z,5.50
2017-12-30T01:55:37.808Z,5.10
2017-12-30T01:56:37.789Z,5.50
2017-12-30T01:57:37.766Z,4.50
2017-12-30T01:58:37.754Z,4.90
2017-12-30T01:59:37.737Z,4.80
2017-12-30T02:00:37.704Z,4.30
2017-12-30T02:01:37.687Z,4.30
2017-12-30T02:02:37.662Z,4.60
2017-12-30T02:03:37.640Z,4.90
2017-12-30T02:04:37.615Z,4.40
2017-12-30T02:05:37.597Z,4.70
2017-12-30T02:06:37.584Z,4.50
2017-12-30T02:07:37.565Z,4.70
2017-12-30T02:08:37.539Z,4.50
2017-12-30T02:09:37.522Z,4.20
2017-12-30T02:10:37.512Z,4.40
2017-12-30T02:11:37.482Z,3.80
2017-12-30T02:12:37.452Z,4.50
2017-12-30T02:13:37.435Z,3.70
2017-12-30T02:14:37.414Z,4.40
2017-12-30T02:15:37.410Z,4.50
2017-12-30T02:16:37.393Z,3.60
2017-12-30T02:17:37.352Z,4.50
2017-12-30T02:18:37.327Z,4.00
2017-12-30T02:19:37.310Z,3.90
2017-12-30T02:20:37.289Z,3.90
2017-12-30T02:21:37.269Z,4.00
2017-12-30T02:22:37.249Z,4.10
2017-12-30T02:23:37.226Z,4.60
2017-12-30T02:24:37.215Z,3.80
2017-12-30T02:25:37.204Z,4.70
2017-12-30T02:26:37.163Z,4.10
2017-12-30T02:27:37.136Z,4.00
2017-12-30T02:28:37.125Z,4.40
2017-12-30T02:29:37.103Z,4.10
2017-12-30T02:30:37.096Z,4.20
2017-12-30T02:31:37.060Z,4.00
2017-12-30T02:32:37.041Z,4.00
2017-12-30T02:33:37.040Z,4.00
2017-12-30T02:34:37.035Z,4.40
2017-12-30T02:35:36.985Z,4.30
2017-12-30T02:36:36.957Z,3.90
2017-12-30T02:37:36.938Z,3.60
2017-12-30T02:38:36.917Z,4.80
2017-12-30T02:39:36.898Z,4.20
2017-12-30T02:40:36.876Z,4.40
2017-12-30T02:41:36.851Z,4.10
2017-12-30T02:42:36.839Z,4.10
2017-12-30T02:43:36.813Z,4.40
2017-12-30T02:44:36.791Z,4.70
2017-12-30T02:45:36.765Z,4.60
2017-12-30T02:46:36.750Z,4.60
2017-12-30T02:47:36.732Z,4.10
2017-12-30T02:48:36.711Z,4.00
2017-12-30T02:49:36.679Z,4.30
2017-12-30T02:50:36.676Z,4.80
2017-12-30T02:51:36.647Z,4.10
2017-12-30T02:52:36.616Z,4.10
2017-12-30T02:53:36.608Z,4.50
2017-12-30T02:54:36.586Z,3.80
2017-12-30T02:55:36.564Z,4.20
2017-12-30T02:56:36.536Z,3.80
2017-12-30T02:57:36.525Z,4.50
2017-12-30T02:58:36.510Z,4.20
2017-12-30T02:59:36.483Z,4.10
2017-12-30T03:00:36.457Z,3.90
2017-12-30T03:01:36.439Z,4.10
2017-12-30T03:02:36.421Z,4.60
2017-12-30T03:03:36.400Z,4.20
2017-12-30T03:04:36.380Z,4.40
2017-12-30T03:05:36.359Z,4.00
2017-12-30T03:06:36.337Z,4.20
2017-12-30T03:07:36.309Z,4.20
2017-12-30T03:08:36.291Z,4.10
2017-12-30T03:09:36.276Z,4.20
2017-12-30T03:10:36.254Z,4.40
2017-12-30T03:11:36.228Z,4.40
2017-12-30T03:12:36.215Z,5.00
2017-12-30T03:13:36.190Z,4.10
2017-12-30T03:14:36.174Z,4.40
2017-12-30T03:15:36.147Z,4.50
2017-12-30T03:16:36.148Z,4.90
2017-12-30T03:17:36.108Z,4.30
2017-12-30T03:18:36.088Z,4.60
2017-12-30T03:19:36.071Z,4.50
2017-12-30T03:20:36.044Z,4.30
2017-12-30T03:21:36.025Z,4.40
2017-12-30T03:22:35.997Z,4.20
2017-12-30T03:23:35.985Z,4.70
2017-12-30T03:24:35.964Z,4.50
2017-12-30T03:25:35.986Z,4.80
2017-12-30T03:26:35.917Z,4.50
2017-12-30T03:27:35.906Z,4.80
2017-12-30T03:28:35.879Z,5.20
2017-12-30T03:29:35.864Z,4.60
2017-12-30T03:30:35.836Z,6.00
2017-12-30T03:31:35.830Z,5.10
2017-12-30T03:32:35.794Z,5.10
2017-12-30T03:33:35.774Z,4.90
2017-12-30T03:34:35.767Z,4.80
2017-12-30T03:35:35.733Z,4.10
2017-12-30T03:36:35.716Z,5.10
2017-12-30T03:37:35.691Z,5.50
2017-12-30T03:38:35.673Z,5.10
2017-12-30T03:39:35.652Z,4.80
2017-12-30T03:40:35.628Z,5.00
2017-12-30T03:41:35.607Z,4.80
2017-12-30T03:42:35.594Z,5.00
2017-12-30T03:43:35.564Z,5.40
2017-12-30T03:44:35.538Z,5.90
2017-12-30T03:45:35.525Z,5.70
2017-12-30T03:46:35.507Z,5.00
2017-12-30T03:47:35.482Z,5.10
2017-12-30T03:48:35.456Z,4.40
2017-12-30T03:49:35.441Z,5.30
2017-12-30T03:50:35.420Z,5.50
2017-12-30T03:51:35.397Z,5.20
2017-12-30T03:52:35.376Z,5.30
2017-12-30T03:53:35.356Z,5.10
2017-12-30T03:54:35.371Z,5.40
2017-12-30T03:55:35.315Z,5.40
2017-12-30T03:56:35.303Z,5.40
2017-12-30T03:57:35.270Z,5.50
2017-12-30T03:58:35.250Z,4.50
2017-12-30T03:59:35.236Z,5.10
2017-12-30T04:00:35.214Z,4.90
2017-12-30T04:01:35.187Z,4.60
2017-12-30T04:02:35.184Z,4.70
2017-12-30T04:03:35.144Z,5.10
2017-12-30T04:04:35.123Z,5.50
2017-12-30T04:05:35.102Z,4.90
2017-12-30T04:06:35.081Z,5.00
2017-12-30T04:07:35.069Z,5.50
2017-12-30T04:08:35.037Z,4.90
2017-12-30T04:09:35.019Z,4.90
2017-12-30T04:10:34.999Z,5.20
2017-12-30T04:11:34.979Z,4.70
2017-12-30T04:12:34.955Z,5.00
2017-12-30T04:13:34.932Z,4.30
2017-12-30T04:14:34.910Z,4.90
2017-12-30T04:15:34.892Z,4.90
2017-12-30T04:16:34.872Z,4.30
2017-12-30T04:17:34.848Z,4.80
2017-12-30T04:18:34.828Z,4.70
2017-12-30T04:19:34.813Z,4.80
2017-12-30T04:20:34.786Z,4.60
2017-12-30T04:21:34.761Z,4.80
2017-12-30T04:22:34.741Z,4.30
2017-12-30T04:23:34.734Z,4.80
2017-12-30T04:24:34.701Z,4.50
2017-12-30T04:25:34.677Z,5.00
2017-12-30T04:26:34.709Z,4.70
2017-12-30T04:27:34.636Z,5.00
2017-12-30T04:28:34.616Z,4.70
2017-12-30T04:29:34.590Z,4.50
2017-12-30T04:30:34.572Z,5.70
2017-12-30T04:31:34.550Z,5.10
2017-12-30T04:32:34.525Z,6.50
2017-12-30T04:33:34.506Z,6.20
2017-12-30T04:34:34.486Z,6.50
2017-12-30T04:35:34.465Z,6.70
2017-12-30T04:36:34.442Z,5.40
2017-12-30T04:37:34.420Z,11.80
2017-12-30T04:38:34.402Z,9.20
2017-12-30T04:39:34.375Z,4.80
2017-12-30T04:40:34.359Z,6.20
2017-12-30T04:41:34.339Z,4.90
2017-12-30T04:42:34.318Z,5.50
2017-12-30T04:43:34.295Z,12.60
2017-12-30T04:44:34.296Z,7.50
2017-12-30T04:45:34.249Z,13.60
2017-12-30T04:46:34.230Z,12.60
2017-12-30T04:47:34.218Z,9.50
2017-12-30T04:48:34.189Z,9.90
2017-12-30T04:49:34.167Z,8.20
2017-12-30T04:50:34.137Z,8.50
2017-12-30T04:51:34.155Z,7.70
2017-12-30T04:52:34.120Z,11.10
2017-12-30T04:53:34.076Z,13.90
2017-12-30T04:54:34.061Z,17.30
2017-12-30T04:55:34.053Z,11.10
2017-12-30T04:56:34.022Z,7.60
2017-12-30T04:57:34.032Z,10.50
2017-12-30T04:58:33.971Z,8.00
2017-12-30T04:59:33.953Z,6.40
2017-12-30T05:00:33.933Z,5.70
2017-12-30T05:01:33.910Z,6.30
2017-12-30T05:02:33.895Z,5.40
2017-12-30T05:03:33.872Z,5.60
2017-12-30T05:04:33.842Z,5.30
2017-12-30T05:05:33.818Z,4.70
2017-12-30T05:06:33.805Z,5.30
2017-12-30T05:07:33.790Z,5.00
2017-12-30T05:08:33.768Z,4.60
2017-12-30T05:09:33.747Z,4.80
2017-12-30T05:10:33.725Z,4.40
2017-12-30T05:11:33.702Z,4.60
2017-12-30T05:12:33.691Z,5.10
2017-12-30T05:13:33.672Z,5.40
2017-12-30T05:14:33.648Z,5.60
2017-12-30T05:15:33.634Z,5.30
2017-12-30T05:16:33.608Z,4.90
2017-12-30T05:17:33.573Z,4.30
2017-12-30T05:18:33.576Z,5.50
2017-12-30T05:19:33.545Z,4.70
2017-12-30T05:20:33.520Z,4.50
2017-12-30T05:21:33.489Z,3.90
2017-12-30T05:22:33.479Z,5.30
2017-12-30T05:23:33.451Z,5.70
2017-12-30T05:24:33.436Z,4.80
2017-12-30T05:25:33.403Z,4.70
2017-12-30T05:26:33.381Z,5.10
2017-12-30T05:27:33.414Z,5.10
2017-12-30T05:28:33.368Z,4.90
2017-12-30T05:29:33.319Z,4.80
2017-12-30T05:30:33.299Z,4.40
2017-12-30T05:31:33.292Z,5.40
2017-12-30T05:32:33.259Z,4.90
2017-12-30T05:33:33.243Z,5.20
2017-12-30T05:34:33.227Z,4.90
2017-12-30T05:35:33.214Z,5.20
2017-12-30T05:36:33.178Z,4.80
2017-12-30T05:37:33.161Z,5.40
2017-12-30T05:38:33.130Z,4.90
2017-12-30T05:39:33.106Z,4.90
2017-12-30T05:40:33.095Z,5.60
2017-12-30T05:41:33.077Z,4.60
2017-12-30T05:42:33.062Z,5.00
2017-12-30T05:43:33.041Z,4.50
2017-12-30T05:44:33.000Z,4.60
2017-12-30T05:45:33.002Z,4.90
2017-12-30T05:46:32.962Z,5.20
2017-12-30T05:47:32.937Z,4.60
2017-12-30T05:48:32.926Z,5.30
2017-12-30T05:49:32.904Z,5.30
2017-12-30T05:50:32.882Z,4.40
2017-12-30T05:51:32.872Z,5.10
2017-12-30T05:52:32.833Z,4.50
2017-12-30T05:53:32.817Z,5.20
2017-12-30T05:54:32.798Z,4.70
2017-12-30T05:55:32.780Z,5.20
2017-12-30T05:56:32.758Z,4.90
2017-12-30T05:57:32.728Z,4.40
2017-12-30T05:58:32.716Z,4.80
2017-12-30T05:59:32.683Z,5.80
2017-12-30T06:00:32.670Z,5.00
2017-12-30T06:01:32.644Z,4.20
2017-12-30T06:02:32.626Z,3.90
2017-12-30T06:03:32.638Z,4.30
2017-12-30T06:04:32.603Z,4.40
2017-12-30T06:05:32.560Z,4.90
2017-12-30T06:06:32.534Z,4.80
2017-12-30T06:07:32.530Z,4.60
2017-12-30T06:08:32.505Z,4.10
2017-12-30T06:09:32.489Z,4.40
2017-12-30T06:10:32.470Z,4.10
2017-12-30T06:11:32.444Z,3.90
2017-12-30T06:12:32.406Z,4.90
2017-12-30T06:13:32.393Z,4.10
2017-12-30T06:14:32.367Z,3.90
2017-12-30T06:15:32.350Z,4.50
2017-12-30T06:16:32.329Z,4.40
2017-12-30T06:17:32.319Z,4.00
2017-12-30T06:18:32.309Z,4.10
2017-12-30T06:19:32.264Z,4.20
2017-12-30T06:20:32.251Z,3.60
2017-12-30T06:21:32.234Z,3.80
2017-12-30T06:22:32.199Z,4.50
2017-12-30T06:23:32.186Z,3.90
2017-12-30T06:24:32.188Z,3.90
2017-12-30T06:25:32.141Z,3.80
2017-12-30T06:26:32.140Z,4.10
2017-12-30T06:27:32.097Z,3.50
2017-12-30T06:28:32.085Z,3.80
2017-12-30T06:29:32.053Z,4.30
2017-12-30T06:30:32.063Z,3.50
2017-12-30T06:31:32.018Z,4.30
2017-12-30T06:32:32.014Z,4.00
2017-12-30T06:33:31.988Z,4.60
2017-12-30T06:34:31.953Z,4.40
2017-12-30T06:35:32.003Z,4.90
2017-12-30T06:36:31.936Z,4.50
2017-12-30T06:37:31.893Z,4.20
2017-12-30T06:38:31.874Z,4.50
2017-12-30T06:39:31.846Z,4.40
2017-12-30T06:40:31.862Z,4.70
2017-12-30T06:41:31.801Z,4.20
2017-12-30T06:42:31.787Z,4.40
2017-12-30T06:43:31.784Z,4.20
2017-12-30T06:44:31.749Z,4.20
2017-12-30T06:45:31.718Z,4.10
2017-12-30T06:46:31.708Z,3.70
2017-12-30T06:47:31.689Z,4.90
2017-12-30T06:48:31.672Z,4.00
2017-12-30T06:49:31.636Z,4.60
2017-12-30T06:50:31.618Z,4.20
2017-12-30T06:51:31.598Z,5.30
2017-12-30T06:52:31.575Z,4.60
2017-12-30T06:53:31.616Z,5.40
2017-12-30T06:54:31.540Z,4.90
2017-12-30T06:55:31.515Z,4.60
2017-12-30T06:56:31.482Z,5.20
2017-12-30T06:57:31.467Z,5.10
2017-12-30T06:58:31.471Z,4.30
2017-12-30T06:59:31.425Z,5.10
2017-12-30T07:00:31.413Z,4.80
2017-12-30T07:01:31.382Z,4.60
2017-12-30T07:02:31.376Z,4.60
2017-12-30T07:03:31.337Z,3.80
2017-12-30T07:04:31.338Z,4.60
2017-12-30T07:05:31.308Z,4.90
2017-12-30T07:06:31.345Z,4.40
2017-12-30T07:07:31.296Z,5.20
2017-12-30T07:08:31.244Z,4.30
2017-12-30T07:09:31.221Z,5.30
2017-12-30T07:10:31.197Z,4.80
2017-12-30T07:11:31.181Z,4.60
2017-12-30T07:12:31.150Z,4.60
2017-12-30T07:13:31.140Z,5.60
2017-12-30T07:14:31.113Z,4.50
2017-12-30T07:15:31.112Z,3.90
2017-12-30T07:16:31.077Z,4.90
2017-12-30T07:17:31.074Z,5.10
2017-12-30T07:18:31.026Z,4.40
2017-12-30T07:19:31.010Z,4.80
2017-12-30T07:20:30.995Z,4.60
2017-12-30T07:21:30.979Z,4.20
2017-12-30T07:22:30.955Z,4.30
2017-12-30T07:23:30.920Z,4.80
2017-12-30T07:24:30.903Z,4.40
2017-12-30T07:25:30.900Z,4.70
2017-12-30T07:26:30.892Z,4.60
2017-12-30T07:27:30.842Z,4.80
2017-12-30T07:28:30.827Z,4.70
2017-12-30T07:29:30.816Z,4.10
2017-12-30T07:30:30.841Z,5.30
2017-12-30T07:31:30.770Z,5.10
2017-12-30T07:32:30.775Z,6.20
2017-12-30T07:33:30.717Z,4.70
2017-12-30T07:34:30.690Z,4.80
2017-12-30T07:35:30.697Z,5.00
2017-12-30T07:36:30.669Z,5.10
2017-12-30T07:37:30.628Z,4.60
2017-12-30T07:38:30.603Z,5.80
2017-12-30T07:39:30.612Z,5.40
2017-12-30T07:40:30.570Z,5.00
2017-12-30T07:41:30.548Z,4.90
2017-12-30T07:42:30.540Z,5.40
2017-12-30T07:43:30.520Z,4.70
2017-12-30T07:44:30.487Z,5.40
2017-12-30T07:45:30.457Z,5.40
2017-12-30T07:46:30.450Z,6.60
2017-12-30T07:47:30.441Z,5.70
2017-12-30T07:48:30.395Z,6.00
2017-12-30T07:49:30.375Z,5.00
2017-12-30T07:50:30.374Z,4.90
2017-12-30T07:51:30.364Z,5.00
2017-12-30T07:52:30.301Z,6.00
2017-12-30T07:53:30.288Z,5.90
2017-12-30T07:54:30.290Z,5.20
2017-12-30T07:55:30.258Z,5.50
2017-12-30T07:56:30.234Z,5.10
2017-12-30T07:57:30.233Z,4.90
2017-12-30T07:58:30.203Z,5.10
2017-12-30T07:59:30.172Z,4.40
2017-12-30T08:00:30.149Z,4.20
2017-12-30T08:01:30.116Z,4.50
2017-12-30T08:02:30.124Z,3.60
2017-12-30T08:03:30.070Z,4.20
2017-12-30T08:04:30.064Z,4.10
2017-12-30T08:05:30.043Z,4.60
2017-12-30T08:06:30.011Z,4.50
2017-12-30T08:07:29.994Z,4.30
2017-12-30T08:08:29.971Z,4.50
2017-12-30T08:09:29.949Z,4.20
2017-12-30T08:10:29.925Z,3.80
2017-12-30T08:11:29.915Z,4.30
2017-12-30T08:12:29.881Z,4.20
2017-12-30T08:13:29.870Z,4.00
2017-12-30T08:14:29.834Z,4.30
2017-12-30T08:15:29.820Z,4.70
2017-12-30T08:16:29.793Z,4.60
2017-12-30T08:17:29.774Z,4.90
2017-12-30T08:18:29.753Z,3.80
2017-12-30T08:19:29.745Z,3.80
2017-12-30T08:20:29.735Z,4.90
2017-12-30T08:21:29.688Z,3.80
2017-12-30T08:22:29.673Z,4.20
2017-12-30T08:23:29.652Z,4.40
2017-12-30T08:24:29.619Z,4.20
2017-12-30T08:25:29.605Z,3.80
2017-12-30T08:26:29.671Z,4.30
2017-12-30T08:27:29.589Z,3.90
2017-12-30T08:28:29.538Z,4.00
2017-12-30T08:29:29.539Z,3.90
2017-12-30T08:30:29.524Z,3.50
2017-12-30T08:31:29.478Z,3.90
2017-12-30T08:32:29.447Z,4.20
2017-12-30T08:33:29.442Z,3.40
2017-12-30T08:34:29.425Z,3.70
2017-12-30T08:35:29.394Z,3.90
2017-12-30T08:36:29.416Z,3.40
2017-12-30T08:37:29.349Z,3.50
2017-12-30T08:38:29.350Z,3.70
2017-12-30T08:39:29.368Z,4.00
2017-12-30T08:40:29.295Z,3.10
2017-12-30T08:41:29.291Z,4.20
2017-12-30T08:42:29.239Z,4.00
2017-12-30T08:43:29.221Z,3.90
2017-12-30T08:44:29.220Z,4.40
2017-12-30T08:45:29.187Z,3.30
2017-12-30T08:46:29.168Z,3.60
2017-12-30T08:47:29.140Z,3.70
2017-12-30T08:48:29.112Z,3.20
2017-12-30T08:49:29.088Z,3.70
2017-12-30T08:50:29.150Z,3.50
2017-12-30T08:51:29.058Z,3.40
2017-12-30T08:52:29.036Z,4.50
2017-12-30T08:53:29.009Z,3.70
2017-12-30T08:54:28.993Z,3.60
2017-12-30T08:55:28.988Z,4.00
2017-12-30T08:56:28.949Z,3.80
2017-12-30T08:57:28.923Z,4.90
2017-12-30T08:58:28.900Z,5.10
2017-12-30T08:59:28.878Z,4.20
2017-12-30T09:00:28.850Z,3.80
2017-12-30T09:01:28.843Z,4.10
2017-12-30T09:02:28.814Z,3.90
2017-12-30T09:03:28.794Z,3.30
2017-12-30T09:04:28.766Z,3.30
2017-12-30T09:05:28.784Z,3.10
2017-12-30T09:06:28.727Z,4.60
2017-12-30T09:07:28.693Z,4.00
2017-12-30T09:08:28.701Z,3.60
2017-12-30T09:09:28.667Z,3.50
2017-12-30T09:10:28.660Z,3.40
2017-12-30T09:11:28.610Z,3.70
2017-12-30T09:12:28.587Z,4.00
2017-12-30T09:13:28.581Z,2.90
2017-12-30T09:14:28.565Z,3.20
2017-12-30T09:15:28.535Z,3.00
2017-12-30T09:16:28.534Z,3.30
2017-12-30T09:17:28.492Z,3.40
2017-12-30T09:18:28.472Z,3.70
2017-12-30T09:19:28.450Z,3.30
2017-12-30T09:20:28.453Z,3.30
2017-12-30T09:21:28.418Z,4.00
2017-12-30T09:22:28.388Z,3.80
2017-12-30T09:23:28.360Z,3.20
2017-12-30T09:24:28.361Z,3.10
2017-12-30T09:25:28.315Z,3.30
2017-12-30T09:26:28.287Z,3.00
2017-12-30T09:27:28.304Z,3.00
2017-12-30T09:28:28.260Z,3.50
2017-12-30T09:29:28.233Z,3.50
2017-12-30T09:30:28.221Z,3.00
2017-12-30T09:31:28.187Z,3.50
2017-12-30T09:32:28.159Z,3.50
2017-12-30T09:33:28.170Z,3.40
2017-12-30T09:34:28.132Z,3.70
2017-12-30T09:35:28.113Z,3.40
2017-12-30T09:36:28.091Z,3.40
2017-12-30T09:37:28.076Z,3.30
2017-12-30T09:38:28.060Z,3.10
2017-12-30T09:39:28.033Z,3.10
2017-12-30T09:40:27.998Z,3.10
2017-12-30T09:41:28.005Z,3.20
2017-12-30T09:42:27.993Z,3.10
2017-12-30T09:43:27.930Z,3.00
2017-12-30T09:44:27.907Z,3.30
2017-12-30T09:45:27.888Z,3.50
2017-12-30T09:46:27.867Z,3.00
2017-12-30T09:47:27.842Z,3.60
2017-12-30T09:48:27.819Z,3.50
2017-12-30T09:49:27.818Z,3.60
2017-12-30T09:50:27.817Z,3.50
2017-12-30T09:51:27.775Z,3.80
2017-12-30T09:52:27.735Z,3.60
2017-12-30T09:53:27.726Z,4.40
2017-12-30T09:54:27.690Z,3.60
2017-12-30T09:55:27.699Z,2.80
2017-12-30T09:56:27.659Z,2.90
2017-12-30T09:57:27.669Z,3.40
2017-12-30T09:58:27.616Z,3.70
2017-12-30T09:59:27.608Z,4.10
2017-12-30T10:00:27.578Z,4.20
2017-12-30T10:01:27.542Z,3.90
2017-12-30T10:02:27.528Z,3.40
2017-12-30T10:03:27.512Z,3.00
2017-12-30T10:04:27.497Z,3.30
2017-12-30T10:05:27.458Z,3.90
2017-12-30T10:06:27.440Z,3.40
2017-12-30T10:07:27.421Z,3.80
2017-12-30T10:08:27.403Z,3.60
2017-12-30T10:09:27.371Z,3.90
2017-12-30T10:10:27.361Z,4.00
2017-12-30T10:11:27.355Z,4.40
2017-12-30T10:12:27.330Z,5.00
2017-12-30T10:13:27.288Z,3.80
2017-12-30T10:14:27.288Z,3.40
2017-12-30T10:15:27.272Z,3.70
2017-12-30T10:16:27.283Z,2.90
2017-12-30T10:17:27.196Z,3.10
2017-12-30T10:18:27.238Z,3.70
2017-12-30T10:19:27.178Z,3.90
2017-12-30T10:20:27.143Z,4.40
2017-12-30T10:21:27.120Z,3.80
2017-12-30T10:22:27.138Z,3.90
2017-12-30T10:23:27.122Z,3.80
2017-12-30T10:24:27.073Z,3.60
2017-12-30T10:25:27.070Z,3.90
2017-12-30T10:26:27.029Z,3.60
2017-12-30T10:27:27.024Z,3.80
2017-12-30T10:28:26.990Z,4.00
2017-12-30T10:29:26.956Z,4.70
2017-12-30T10:30:26.959Z,4.50
2017-12-30T10:31:26.911Z,4.90
2017-12-30T10:32:26.914Z,4.20
2017-12-30T10:33:26.880Z,4.80
2017-12-30T10:34:26.851Z,5.10
2017-12-30T10:35:26.826Z,5.10
2017-12-30T10:36:26.823Z,5.00
2017-12-30T10:37:26.786Z,6.10
2017-12-30T10:38:26.755Z,5.10
2017-12-30T10:39:26.745Z,9.40
2017-12-30T10:40:26.748Z,6.20
2017-12-30T10:41:26.726Z,6.80
2017-12-30T10:42:26.675Z,6.40
2017-12-30T10:43:26.699Z,5.60
2017-12-30T10:44:26.648Z,5.50
2017-12-30T10:45:26.663Z,4.70
2017-12-30T10:46:26.595Z,5.70
2017-12-30T10:47:26.599Z,6.50
2017-12-30T10:48:26.577Z,4.80
2017-12-30T10:49:26.528Z,6.40
2017-12-30T10:50:26.514Z,5.50
2017-12-30T10:51:26.505Z,4.60
2017-12-30T10:52:26.482Z,4.80
2017-12-30T10:53:26.453Z,4.10
2017-12-30T10:54:26.431Z,4.40
2017-12-30T10:55:26.426Z,4.60
2017-12-30T10:56:26.385Z,4.70
2017-12-30T10:57:26.369Z,4.40
2017-12-30T10:58:26.442Z,4.10
2017-12-30T10:59:26.334Z,5.20
2017-12-30T11:00:26.300Z,4.10
2017-12-30T11:01:26.316Z,4.40
2017-12-30T11:02:26.299Z,4.50
2017-12-30T11:03:26.308Z,4.60
2017-12-30T11:04:26.223Z,5.40
2017-12-30T11:05:26.210Z,4.60
2017-12-30T11:06:26.180Z,4.60
2017-12-30T11:07:26.166Z,4.60
2017-12-30T11:08:26.135Z,4.50
2017-12-30T11:09:26.132Z,4.60
2017-12-30T11:10:26.128Z,5.50
2017-12-30T11:11:26.094Z,5.20
2017-12-30T11:12:26.055Z,5.00
2017-12-30T11:13:26.054Z,5.30
2017-12-30T11:14:26.047Z,5.70
2017-12-30T11:15:26.017Z,5.80
2017-12-30T11:16:26.009Z,5.90
2017-12-30T11:17:25.983Z,5.90
2017-12-30T11:18:25.936Z,6.50
2017-12-30T11:19:25.925Z,6.70
2017-12-30T11:20:25.957Z,6.40
2017-12-30T11:21:25.891Z,6.80
2017-12-30T11:22:25.864Z,6.50
2017-12-30T11:23:25.832Z,7.00
2017-12-30T11:24:25.825Z,6.70
2017-12-30T11:25:25.804Z,6.90
2017-12-30T11:26:25.771Z,6.90
2017-12-30T11:28:25.780Z,7.30
2017-12-30T11:29:25.727Z,7.00
2017-12-30T11:30:25.717Z,7.50
2017-12-30T11:31:25.680Z,7.30
2017-12-30T11:32:25.669Z,8.50
2017-12-30T11:33:25.647Z,8.10
2017-12-30T11:34:25.615Z,8.80
2017-12-30T11:35:25.609Z,9.50
2017-12-30T11:36:25.573Z,7.90
2017-12-30T11:37:25.590Z,9.10
2017-12-30T11:38:25.534Z,8.70
2017-12-30T11:39:25.507Z,9.90
2017-12-30T11:40:25.497Z,9.40
2017-12-30T11:41:25.475Z,10.40
2017-12-30T11:42:25.442Z,9.70
2017-12-30T11:43:25.434Z,10.90
2017-12-30T11:44:25.407Z,11.40
2017-12-30T11:45:25.391Z,11.30
2017-12-30T11:46:25.415Z,11.50
2017-12-30T11:47:25.366Z,11.50
2017-12-30T11:48:25.351Z,11.70
2017-12-30T11:49:25.311Z,12.60
2017-12-30T11:50:25.305Z,13.20
2017-12-30T11:51:25.303Z,14.00
2017-12-30T11:52:25.316Z,13.80
2017-12-30T11:53:25.232Z,14.50
2017-12-30T11:54:25.231Z,16.50
2017-12-30T11:55:25.229Z,17.70
2017-12-30T11:56:25.171Z,16.50
2017-12-30T11:57:25.190Z,19.80
2017-12-30T11:58:25.131Z,19.00
2017-12-30T11:59:25.140Z,21.00
2017-12-30T12:00:25.106Z,21.10
2017-12-30T12:01:25.094Z,20.60
2017-12-30T12:02:25.058Z,20.80
2017-12-30T12:03:25.046Z,19.70
2017-12-30T12:04:25.033Z,19.40
2017-12-30T12:05:25.006Z,21.10
2017-12-30T12:06:24.973Z,21.40
2017-12-30T12:07:24.973Z,22.60
2017-12-30T12:08:24.934Z,23.20
2017-12-30T12:09:24.933Z,22.70
2017-12-30T12:10:24.904Z,23.50
2017-12-30T12:11:24.900Z,23.30
2017-12-30T12:12:24.858Z,23.00
2017-12-30T12:13:24.882Z,24.70
2017-12-30T12:14:24.818Z,24.80
2017-12-30T12:15:24.824Z,26.30
2017-12-30T12:16:24.791Z,25.80
2017-12-30T12:17:24.814Z,25.80
2017-12-30T12:18:24.750Z,27.40
2017-12-30T12:19:24.722Z,28.20
2017-12-30T12:20:24.727Z,27.90
2017-12-30T12:21:24.688Z,29.90
2017-12-30T12:22:24.677Z,31.00
2017-12-30T12:23:24.652Z,28.90
2017-12-30T12:24:24.640Z,28.20
2017-12-30T12:25:24.656Z,28.00
2017-12-30T12:26:24.660Z,29.00
2017-12-30T12:27:24.572Z,28.90
2017-12-30T12:28:24.600Z,26.70
2017-12-30T12:29:24.526Z,39.10
2017-12-30T12:30:24.523Z,31.70
2017-12-30T12:31:24.549Z,27.80
2017-12-30T12:32:24.498Z,28.70
2017-12-30T12:33:24.452Z,29.10
2017-12-30T12:34:24.436Z,27.50
2017-12-30T12:35:24.453Z,27.50
2017-12-30T12:36:24.401Z,27.30
2017-12-30T12:37:24.413Z,27.40
2017-12-30T12:38:24.386Z,28.60
2017-12-30T12:39:24.356Z,26.20
2017-12-30T12:40:24.349Z,28.20
2017-12-30T12:41:24.413Z,27.00
2017-12-30T12:42:24.321Z,30.50
2017-12-30T12:43:24.278Z,28.70
2017-12-30T12:44:24.248Z,28.20
2017-12-30T12:45:24.227Z,27.40
2017-12-30T12:46:24.225Z,26.50
2017-12-30T12:47:24.218Z,26.40
2017-12-30T12:48:24.175Z,26.50
2017-12-30T12:49:24.160Z,23.90
2017-12-30T12:50:24.162Z,26.00
2017-12-30T12:51:24.114Z,24.80
2017-12-30T12:52:24.110Z,24.90
2017-12-30T12:53:24.080Z,24.60
2017-12-30T12:54:24.070Z,24.30
2017-12-30T12:55:24.086Z,26.50
2017-12-30T12:56:24.024Z,24.40
2017-12-30T12:57:24.008Z,25.40
2017-12-30T12:58:24.015Z,24.20
2017-12-30T12:59:23.988Z,23.40
2017-12-30T13:00:23.956Z,22.60
2017-12-30T13:01:23.952Z,23.00
2017-12-30T13:02:23.931Z,24.20
2017-12-30T13:03:23.949Z,23.40
2017-12-30T13:04:23.999Z,22.00
2017-12-30T13:05:24.041Z,22.00
2017-12-30T13:06:23.858Z,25.40
2017-12-30T13:07:23.839Z,23.20
2017-12-30T13:08:23.831Z,22.00
2017-12-30T13:09:23.782Z,21.50
2017-12-30T13:10:23.806Z,20.50
2017-12-30T13:11:23.823Z,22.00
2017-12-30T13:12:23.744Z,20.40
2017-12-30T13:13:23.757Z,19.60
2017-12-30T13:14:23.722Z,19.00
2017-12-30T13:15:23.696Z,19.40